Time;durP1;ratioP1;P1;durP2;ratioP2;P2;SDS_P1;SDS_P2;PMS_P1;PMS_P2;Temp;Humidity;BMP_temperature;BMP_pressure;BME280_temperature;BME280_humidity;BME280_pressure;Samples;Min_cycle;Max_cycle;Signal;HPM_P1;HPM_P2
2023/10/16 00:00:32;;;;;;;0.80;0.80;;;;;;;6.11;98.45;100779.44;5083774;28;20033;-77
2023/10/16 00:03:02;;;;;;;0.90;0.90;;;;;;;6.06;98.85;100775.09;5082238;28;20040;-75
2023/10/16 00:05:38;;;;;;;0.77;0.77;;;;;;;6.16;99.32;100782.97;5069643;28;20032;-78
2023/10/16 00:08:07;;;;;;;0.80;0.80;;;;;;;6.15;98.64;100780.31;5090220;28;20047;-77
2023/10/16 00:10:35;;;;;;;0.90;0.90;;;;;;;6.15;98.66;100768.00;5073426;28;20036;-76
2023/10/16 00:13:04;;;;;;;0.90;0.90;;;;;;;6.18;97.81;100772.38;5069792;28;20107;-77
2023/10/16 00:15:39;;;;;;;0.80;0.80;;;;;;;6.15;97.95;100775.94;5072151;28;20768;-76
2023/10/16 00:18:10;;;;;;;0.80;0.80;;;;;;;6.02;97.44;100758.34;5069798;28;20047;-76
2023/10/16 00:20:40;;;;;;;0.85;0.85;;;;;;;6.06;97.45;100775.09;5072129;28;20032;-74
2023/10/16 00:23:10;;;;;;;0.82;0.82;;;;;;;6.03;97.32;100778.59;5059116;28;20036;-70
2023/10/16 00:25:38;;;;;;;0.90;0.90;;;;;;;5.94;97.45;100769.81;5090717;28;20489;-70
2023/10/16 00:28:15;;;;;;;0.90;0.90;;;;;;;5.93;96.91;100773.34;5058282;28;20074;-70
2023/10/16 00:30:41;;;;;;;0.80;0.80;;;;;;;5.84;97.07;100768.97;5062920;28;20024;-70
2023/10/16 00:33:13;;;;;;;0.90;0.90;;;;;;;5.77;97.10;100768.91;5084474;28;20024;-71
2023/10/16 00:35:39;;;;;;;0.80;0.80;;;;;;;5.76;97.09;100762.78;5072638;28;20024;-71
2023/10/16 00:38:12;;;;;;;0.90;0.90;;;;;;;5.70;97.35;100765.41;5071956;28;20517;-71
2023/10/16 00:40:44;;;;;;;0.90;0.90;;;;;;;5.73;97.18;100764.53;5087886;28;20376;-72
2023/10/16 00:43:12;;;;;;;0.90;0.90;;;;;;;5.63;97.59;100760.16;5072068;28;20265;-72
2023/10/16 00:45:48;;;;;;;0.80;0.80;;;;;;;5.66;97.68;100762.78;5087474;28;20036;-72
2023/10/16 00:48:16;;;;;;;1.00;1.00;;;;;;;5.61;97.96;100754.88;5071773;28;20028;-72
2023/10/16 00:50:48;;;;;;;0.80;0.80;;;;;;;5.65;97.72;100758.41;5089348;28;20027;-73
2023/10/16 00:53:15;;;;;;;0.90;0.90;;;;;;;5.62;97.92;100754.00;5080622;28;20035;-72
2023/10/16 00:55:41;;;;;;;0.90;0.90;;;;;;;5.52;97.68;100732.91;5084210;28;20081;-72
2023/10/16 00:58:07;;;;;;;0.93;0.93;;;;;;;5.51;97.92;100736.41;5071066;28;20025;-72
2023/10/16 01:00:45;;;;;;;0.90;0.90;;;;;;;5.48;98.43;100741.69;5071040;28;20032;-76
2023/10/16 01:03:11;;;;;;;0.90;0.90;;;;;;;5.48;98.20;100736.41;5079127;28;20141;-77
2023/10/16 01:05:41;;;;;;;0.90;0.90;;;;;;;5.42;98.44;100731.16;5090240;28;20030;-77
2023/10/16 01:08:07;;;;;;;0.80;0.80;;;;;;;5.40;98.61;100718.81;5068515;28;20032;-79
2023/10/16 01:10:40;;;;;;;0.90;0.90;;;;;;;5.45;98.49;100712.69;5071488;28;20028;-77
2023/10/16 01:13:12;;;;;;;0.90;0.90;;;;;;;5.52;98.79;100717.94;5090246;28;20088;-78
2023/10/16 01:15:43;;;;;;;1.00;1.00;;;;;;;5.61;99.03;100709.13;5088865;28;20050;-78
2023/10/16 01:18:11;;;;;;;0.80;0.80;;;;;;;5.64;99.07;100717.03;5083135;28;20443;-77
2023/10/16 01:20:37;;;;;;;0.90;0.90;;;;;;;5.69;98.90;100717.91;5089870;28;20477;-78
2023/10/16 01:23:07;;;;;;;0.88;0.88;;;;;;;5.67;98.95;100714.41;5068578;28;20031;-78
2023/10/16 01:25:32;;;;;;;0.80;0.80;;;;;;;5.58;98.86;100702.13;5071662;28;20024;-76
2023/10/16 01:27:58;;;;;;;0.98;0.98;;;;;;;5.55;99.01;100702.13;5089965;28;20091;-75
2023/10/16 01:30:23;;;;;;;0.90;0.90;;;;;;;5.57;99.27;100694.22;5089378;28;20106;-76
2023/10/16 01:32:48;;;;;;;0.95;0.95;;;;;;;5.65;99.53;100702.97;5067640;28;20081;-77
2023/10/16 01:35:14;;;;;;;0.90;0.90;;;;;;;5.64;99.44;100702.09;5089044;28;20024;-77
2023/10/16 01:37:41;;;;;;;0.90;0.90;;;;;;;5.67;99.30;100701.22;5089319;28;20042;-77
2023/10/16 01:40:21;;;;;;;0.90;0.90;;;;;;;5.66;99.26;100704.72;5089010;28;20028;-78
2023/10/16 01:42:53;;;;;;;0.90;0.90;;;;;;;5.65;99.19;100701.19;5072984;28;20024;-78
2023/10/16 01:45:20;;;;;;;1.00;1.00;;;;;;;5.61;99.16;100703.84;5068542;28;20439;-77
2023/10/16 01:47:47;;;;;;;1.00;1.00;;;;;;;5.56;99.34;100710.91;5068842;28;20108;-77
2023/10/16 01:50:18;;;;;;;0.93;0.93;;;;;;;5.58;99.48;100706.50;5070249;28;20472;-77
2023/10/16 01:52:44;;;;;;;0.90;0.90;;;;;;;5.56;99.14;100714.44;5055995;28;20055;-76
2023/10/16 01:55:16;;;;;;;0.90;0.90;;;;;;;5.49;99.70;100712.66;5088962;28;20444;-76
2023/10/16 01:57:43;;;;;;;0.90;0.90;;;;;;;5.47;99.78;100708.28;5087839;28;20403;-78
2023/10/16 02:00:16;;;;;;;1.00;1.00;;;;;;;5.53;99.42;100713.53;5081110;28;20028;-77
2023/10/16 02:02:42;;;;;;;1.00;1.00;;;;;;;5.46;99.74;100702.13;5069843;28;20044;-77
2023/10/16 02:05:10;;;;;;;0.90;0.90;;;;;;;5.50;100.00;100703.00;5069377;28;20043;-77
2023/10/16 02:07:41;;;;;;;0.90;0.90;;;;;;;5.48;99.65;100702.13;5087426;28;20518;-77
2023/10/16 02:10:07;;;;;;;0.90;0.90;;;;;;;5.48;99.91;100707.41;5086545;28;20119;-76
2023/10/16 02:12:33;;;;;;;0.90;0.90;;;;;;;5.44;100.00;100700.38;5083151;28;20072;-72
2023/10/16 02:15:05;;;;;;;0.90;0.90;;;;;;;5.45;100.00;100694.22;5088598;28;20070;-72
2023/10/16 02:17:31;;;;;;;1.00;1.00;;;;;;;5.42;99.87;100694.22;5053303;28;20115;-72
2023/10/16 02:19:57;;;;;;;0.90;0.90;;;;;;;5.34;99.71;100681.03;5068910;28;20151;-72
2023/10/16 02:22:23;;;;;;;0.88;0.88;;;;;;;5.29;100.00;100688.94;5071389;28;20028;-72
2023/10/16 02:24:51;;;;;;;0.90;0.90;;;;;;;5.19;100.00;100675.75;5089133;28;20028;-72
2023/10/16 02:27:21;;;;;;;0.80;0.80;;;;;;;5.15;100.00;100679.28;5089192;28;20504;-72
2023/10/16 02:29:48;;;;;;;0.90;0.90;;;;;;;5.14;100.00;100680.19;5076157;28;20484;-72
2023/10/16 02:32:15;;;;;;;0.90;0.90;;;;;;;5.16;100.00;100678.41;5054574;28;20020;-70
2023/10/16 02:34:41;;;;;;;0.90;0.90;;;;;;;5.06;99.93;100674.91;5075234;28;20025;-70
2023/10/16 02:37:09;;;;;;;0.80;0.80;;;;;;;5.06;100.00;100674.91;5072416;28;20674;-70
2023/10/16 02:39:41;;;;;;;0.90;0.90;;;;;;;5.01;100.00;100676.66;5091613;28;20807;-70
2023/10/16 02:42:11;;;;;;;1.00;1.00;;;;;;;5.00;100.00;100671.38;5090788;28;20024;-70
2023/10/16 02:44:45;;;;;;;1.00;1.00;;;;;;;5.04;100.00;100678.44;5075867;28;20059;-70
2023/10/16 02:47:19;;;;;;;;;;;;;;;5.07;100.00;100676.63;5072820;28;20025;-70
2023/10/16 02:49:47;;;;;;;1.08;1.08;;;;;;;5.11;100.00;100670.50;5053253;28;19946;-70
2023/10/16 02:52:18;;;;;;;0.90;0.90;;;;;;;5.15;100.00;100674.03;5079061;28;20461;-70
2023/10/16 02:54:45;;;;;;;0.90;0.90;;;;;;;5.18;100.00;100664.34;5073159;28;20020;-70
2023/10/16 02:57:11;;;;;;;0.90;0.90;;;;;;;5.24;100.00;100669.59;5089598;28;20032;-70
2023/10/16 02:59:43;;;;;;;0.93;0.93;;;;;;;5.23;100.00;100667.88;5072563;28;20028;-70
2023/10/16 03:02:17;;;;;;;0.95;0.95;;;;;;;5.28;100.00;100662.56;5069636;28;20029;-70
2023/10/16 03:04:44;;;;;;;0.82;0.82;;;;;;;5.32;100.00;100661.72;5073300;28;20033;-70
2023/10/16 03:07:09;;;;;;;0.80;0.80;;;;;;;5.32;100.00;100667.84;5090209;28;20020;-70
2023/10/16 03:09:35;;;;;;;0.90;0.90;;;;;;;5.31;100.00;100658.19;5072440;28;20073;-70
2023/10/16 03:12:09;;;;;;;0.90;0.90;;;;;;;5.35;100.00;100662.56;5091520;28;20488;-70
2023/10/16 03:14:45;;;;;;;1.00;1.00;;;;;;;5.39;100.00;100661.69;5075536;28;20047;-69
2023/10/16 03:17:19;;;;;;;0.90;0.90;;;;;;;5.40;100.00;100660.78;5072185;28;20464;-69
2023/10/16 03:19:48;;;;;;;0.90;0.90;;;;;;;5.47;100.00;100655.53;5063833;28;20032;-70
2023/10/16 03:22:14;;;;;;;0.90;0.90;;;;;;;5.50;100.00;100658.16;5073463;28;20028;-77
2023/10/16 03:24:40;;;;;;;0.80;0.80;;;;;;;5.54;100.00;100651.97;5073617;28;20032;-79
2023/10/16 03:27:08;;;;;;;0.80;0.80;;;;;;;5.60;100.00;100663.38;5062609;28;20039;-78
2023/10/16 03:29:34;;;;;;;0.88;0.88;;;;;;;5.67;100.00;100659.00;5071915;28;20024;-78
2023/10/16 03:31:59;;;;;;;0.85;0.85;;;;;;;5.63;100.00;100646.69;5071881;28;20491;-79
2023/10/16 03:34:24;;;;;;;0.98;0.98;;;;;;;5.68;100.00;100644.91;5071762;28;20024;-76
2023/10/16 03:36:54;;;;;;;1.00;1.00;;;;;;;5.72;100.00;100647.53;5084684;28;20043;-76
2023/10/16 03:39:20;;;;;;;0.80;0.80;;;;;;;5.72;100.00;100642.25;5090746;28;20032;-77
2023/10/16 03:41:48;;;;;;;0.88;0.88;;;;;;;5.77;100.00;100639.59;5077949;28;20090;-79
2023/10/16 03:44:14;;;;;;;1.00;1.00;;;;;;;5.86;100.00;100653.69;5070682;28;20028;-77
2023/10/16 03:46:40;;;;;;;1.00;1.00;;;;;;;5.91;100.00;100648.38;5054860;28;20035;-75
2023/10/16 03:49:06;;;;;;;0.90;0.90;;;;;;;5.93;100.00;100630.78;5070153;28;20056;-75
2023/10/16 03:51:32;;;;;;;1.00;1.00;;;;;;;5.99;100.00;100630.75;5076944;28;20076;-76
2023/10/16 03:53:57;;;;;;;0.90;0.90;;;;;;;5.96;100.00;100623.72;5090231;28;20036;-76
2023/10/16 03:56:24;;;;;;;0.80;0.80;;;;;;;6.05;100.00;100630.72;5087870;28;20024;-77
2023/10/16 03:58:53;;;;;;;0.85;0.85;;;;;;;6.03;100.00;100629.88;5090274;28;20023;-76
2023/10/16 04:01:23;;;;;;;0.80;0.80;;;;;;;6.03;100.00;100627.22;5090110;28;20475;-77
2023/10/16 04:04:12;;;;;;;0.88;0.88;;;;;;;6.06;100.00;100621.94;5087120;28;20395;-75
2023/10/16 04:06:39;;;;;;;0.90;0.90;;;;;;;6.05;100.00;100634.25;5083474;28;20128;-76
2023/10/16 04:09:06;;;;;;;0.90;0.90;;;;;;;6.08;100.00;100628.09;5090774;28;20552;-75
2023/10/16 04:11:32;;;;;;;1.00;1.00;;;;;;;6.03;100.00;100625.44;5087514;28;20048;-74
2023/10/16 04:13:58;;;;;;;0.90;0.90;;;;;;;6.04;100.00;100628.97;5058980;28;20036;-77
2023/10/16 04:16:31;;;;;;;0.90;0.90;;;;;;;6.03;100.00;100633.34;5049777;28;20377;-77
2023/10/16 04:21:40;;;;;;;;;;;;;;;5.99;100.00;100630.75;5058596;28;20033;-75
2023/10/16 04:24:30;;;;;;;0.90;0.90;;;;;;;5.97;100.00;100622.84;5068606;28;20007;-79
2023/10/16 04:29:34;;;;;;;0.85;0.85;;;;;;;5.97;100.00;100611.38;5067374;28;20032;-78
2023/10/16 04:32:19;;;;;;;0.90;0.90;;;;;;;6.03;100.00;100614.88;5070668;28;20103;-69
2023/10/16 04:34:52;;;;;;;0.90;0.90;;;;;;;6.07;100.00;100607.81;5070510;28;20060;-70
2023/10/16 04:37:36;;;;;;;1.00;1.00;;;;;;;6.06;100.00;100611.38;5070517;28;20028;-70
2023/10/16 04:47:48;;;;;;;0.80;0.80;;;;;;;5.94;100.00;100614.03;5054138;28;20108;-70
2023/10/16 04:50:15;;;;;;;0.90;0.90;;;;;;;5.88;100.00;100604.38;5049150;28;20025;-70
2023/10/16 05:06:38;;;;;;;0.90;0.90;;;;;;;5.92;100.00;100595.56;5049496;28;20515;-70
2023/10/16 06:15:25;;;;;;;1.00;1.00;;;;;;;6.08;100.00;100591.13;5072603;28;20471;-69
2023/10/16 06:17:51;;;;;;;0.90;0.90;;;;;;;6.07;100.00;100581.41;5091789;28;20030;-69
2023/10/16 06:20:21;;;;;;;0.90;0.90;;;;;;;6.17;100.00;100599.84;5093229;28;20535;-69
2023/10/16 06:22:51;;;;;;;1.00;1.00;;;;;;;6.23;100.00;100591.00;5086501;28;20063;-69
2023/10/16 06:25:19;;;;;;;0.90;0.90;;;;;;;6.33;100.00;100606.78;5092946;28;20428;-69
2023/10/16 06:27:46;;;;;;;0.80;0.80;;;;;;;6.38;100.00;100602.34;5074736;28;20494;-69
2023/10/16 06:30:18;;;;;;;0.90;0.90;;;;;;;6.42;100.00;100603.22;5090413;28;20055;-69
2023/10/16 06:32:44;;;;;;;0.90;0.90;;;;;;;6.54;100.00;100605.75;5070468;28;20564;-69
2023/10/16 06:35:16;;;;;;;0.90;0.90;;;;;;;6.63;100.00;100611.88;5070693;28;20017;-69
2023/10/16 06:37:51;;;;;;;0.80;0.80;;;;;;;6.78;100.00;100610.00;5072381;28;20421;-69
2023/10/16 06:40:18;;;;;;;0.80;0.80;;;;;;;6.87;100.00;100609.94;5074100;28;20024;-70
2023/10/16 06:42:46;;;;;;;0.90;0.90;;;;;;;6.99;100.00;100600.13;5071228;28;20029;-69
2023/10/16 06:45:40;;;;;;;0.90;0.90;;;;;;;7.05;100.00;100594.75;5087299;28;20024;-69
2023/10/16 06:48:08;;;;;;;0.80;0.80;;;;;;;7.23;100.00;100607.81;5071356;28;20153;-69
2023/10/16 06:50:40;;;;;;;0.80;0.80;;;;;;;7.28;100.00;100598.06;5074018;28;20035;-69
2023/10/16 06:53:05;;;;;;;0.90;0.90;;;;;;;7.44;100.00;100614.69;5061529;28;20035;-79
2023/10/16 06:55:31;;;;;;;0.90;0.90;;;;;;;7.50;100.00;100604.91;5092625;28;20043;-79
2023/10/16 06:57:56;;;;;;;0.90;0.90;;;;;;;7.67;100.00;100608.25;5074469;28;20031;-80
2023/10/16 07:00:32;;;;;;;0.80;0.80;;;;;;;7.88;100.00;100605.34;5075920;28;20028;-79
2023/10/16 07:03:01;;;;;;;0.80;0.80;;;;;;;8.47;100.00;100608.97;5072068;28;20457;-80
2023/10/16 07:05:43;;;;;;;0.80;0.80;;;;;;;9.11;100.00;100596.41;5074888;28;20028;-81
2023/10/16 07:08:18;;;;;;;0.80;0.80;;;;;;;9.94;95.69;100590.38;5056932;28;20718;-79
2023/10/16 07:10:49;;;;;;;0.70;0.70;;;;;;;10.69;90.20;100602.91;5087990;28;20032;-82
2023/10/16 07:13:27;;;;;;;0.80;0.80;;;;;;;11.17;83.26;100599.06;5053290;28;20388;-81
2023/10/16 07:16:00;;;;;;;0.70;0.70;;;;;;;11.53;80.79;100592.75;5089620;28;20031;-79
2023/10/16 07:18:26;;;;;;;0.80;0.80;;;;;;;12.28;78.77;100598.56;5073633;28;20086;-77
2023/10/16 07:20:59;;;;;;;0.70;0.70;;;;;;;13.29;74.19;100589.06;5053328;28;20055;-79
2023/10/16 07:23:29;;;;;;;0.70;0.70;;;;;;;14.01;68.89;100595.34;5080023;28;20024;-81
2023/10/16 07:25:55;;;;;;;0.70;0.70;;;;;;;14.81;64.29;100602.91;5093025;28;20024;-80
2023/10/16 07:28:22;;;;;;;0.60;0.60;;;;;;;16.05;59.73;100595.72;5089898;28;20534;-81
2023/10/16 07:30:47;;;;;;;0.60;0.60;;;;;;;17.42;54.59;100605.13;5089238;28;20032;-76
2023/10/16 07:33:16;;;;;;;0.50;0.50;;;;;;;18.61;50.14;100605.94;5091708;28;20039;-79
2023/10/16 07:35:49;;;;;;;0.50;0.50;;;;;;;19.63;47.53;100603.47;5083923;28;20032;-78
2023/10/16 07:38:20;;;;;;;0.50;0.50;;;;;;;20.31;44.94;100601.09;5081486;28;20054;-82
2023/10/16 07:41:09;;;;;;;0.40;0.40;;;;;;;20.67;43.81;100614.94;5070699;28;20028;-75
2023/10/16 07:43:36;;;;;;;0.35;0.35;;;;;;;21.13;42.93;100612.84;5053996;28;20039;-79
2023/10/16 07:48:46;;;;;;;0.30;0.30;;;;;;;21.86;40.85;100615.03;5090072;28;20032;-78
2023/10/16 07:51:12;;;;;;;0.30;0.30;;;;;;;;;;5096313;28;20096;-79
2023/10/16 07:53:38;;;;;;;0.40;0.40;;;;;;;21.66;40.26;100613.66;5074159;28;20478;-82
2023/10/16 07:56:25;;;;;;;0.30;0.30;;;;;;;22.10;40.39;100619.63;5089410;28;20028;-81
2023/10/16 07:59:08;;;;;;;0.30;0.30;;;;;;;21.76;39.88;100624.75;5071399;28;20027;-77
2023/10/16 08:01:57;;;;;;;0.30;0.30;;;;;;;21.80;40.47;100616.31;5073375;28;20034;-78
2023/10/16 08:06:52;;;;;;;0.30;0.30;;;;;;;22.98;38.49;100619.50;5087641;28;20028;-76
2023/10/16 08:11:52;;;;;;;0.30;0.30;;;;;;;22.84;38.39;100616.94;5084727;28;20048;-75
2023/10/16 08:14:18;;;;;;;0.30;0.30;;;;;;;22.70;38.37;100624.38;5054647;28;20556;-76
2023/10/16 08:16:43;;;;;;;0.20;0.20;;;;;;;22.03;39.26;100623.72;5050406;28;20031;-76
2023/10/16 08:19:15;;;;;;;0.30;0.30;;;;;;;21.67;39.32;100614.53;5052663;28;20476;-74
2023/10/16 08:21:43;;;;;;;0.30;0.30;;;;;;;21.34;40.35;100624.94;5031657;28;20036;-76
2023/10/16 08:24:16;;;;;;;0.30;0.30;;;;;;;21.42;40.88;100619.88;5065760;28;20115;-76
2023/10/16 08:26:45;;;;;;;0.20;0.20;;;;;;;21.71;39.79;100619.63;5049775;28;20021;-74
2023/10/16 08:31:44;;;;;;;0.30;0.30;;;;;;;21.78;40.04;100606.56;5049256;28;20024;-74
2023/10/16 08:34:13;;;;;;;0.22;0.22;;;;;;;22.45;40.20;100619.81;5033559;28;20035;-74
2023/10/16 08:36:38;;;;;;;0.28;0.28;;;;;;;22.68;39.45;100616.34;5061123;28;20165;-75
2023/10/16 08:39:14;;;;;;;0.20;0.20;;;;;;;22.50;39.64;100627.59;5045823;28;20029;-74
2023/10/16 08:41:43;;;;;;;0.30;0.30;;;;;;;21.60;40.61;100619.50;5048149;28;20028;-74
2023/10/16 08:44:15;;;;;;;0.20;0.20;;;;;;;20.69;41.50;100615.72;5064983;28;20028;-74
2023/10/16 08:49:22;;;;;;;0.20;0.20;;;;;;;18.86;45.17;100603.59;5055299;28;20032;-78
2023/10/16 08:52:07;;;;;;;0.30;0.30;;;;;;;18.83;46.22;100596.53;5054209;28;20202;-75
2023/10/16 08:57:19;;;;;;;0.30;0.30;;;;;;;20.22;44.31;100594.41;5075037;28;20032;-73
2023/10/16 08:59:47;;;;;;;0.30;0.30;;;;;;;20.54;43.51;100593.22;5054057;28;20035;-72
2023/10/16 09:02:17;;;;;;;0.20;0.20;;;;;;;20.57;43.62;100598.47;5034202;28;20021;-72
2023/10/16 09:04:44;;;;;;;0.20;0.20;;;;;;;20.94;43.50;100589.66;5055626;28;20456;-73
2023/10/16 09:07:16;;;;;;;0.20;0.20;;;;;;;21.34;43.13;100592.44;5050754;28;20054;-73
2023/10/16 09:09:42;;;;;;;0.20;0.20;;;;;;;21.66;42.43;100591.13;5033103;28;20044;-72
2023/10/16 09:12:10;;;;;;;0.22;0.22;;;;;;;20.89;42.38;100597.22;5063855;28;20041;-73
2023/10/16 09:14:40;;;;;;;0.20;0.20;;;;;;;20.30;44.40;100596.63;5062297;28;20047;-73
2023/10/16 09:17:07;;;;;;;0.20;0.20;;;;;;;20.42;43.98;100590.44;5075748;28;20020;-73
2023/10/16 09:19:34;;;;;;;0.20;0.20;;;;;;;20.22;44.09;100594.41;5058495;28;20395;-73
2023/10/16 09:22:08;;;;;;;0.20;0.20;;;;;;;20.36;44.16;100588.16;5085828;28;20027;-73
2023/10/16 09:24:35;;;;;;;0.20;0.20;;;;;;;20.57;43.95;100582.25;5088381;28;20066;-73
2023/10/16 09:27:11;;;;;;;0.20;0.20;;;;;;;20.48;43.79;100593.63;5079142;28;20096;-73
2023/10/16 09:29:36;;;;;;;0.20;0.20;;;;;;;20.41;44.17;100580.63;5081035;28;20033;-73
2023/10/16 09:32:06;;;;;;;0.20;0.20;;;;;;;20.94;43.05;100573.44;5068115;28;20043;-73
2023/10/16 09:34:34;;;;;;;0.17;0.17;;;;;;;21.12;43.09;100575.94;5096664;28;20032;-72
2023/10/16 09:37:15;;;;;;;0.17;0.17;;;;;;;20.91;42.62;100576.34;5081170;28;20043;-72
2023/10/16 09:39:40;;;;;;;0.20;0.20;;;;;;;20.78;42.32;100570.03;5097148;28;20020;-72
2023/10/16 09:42:15;;;;;;;0.20;0.20;;;;;;;20.73;42.74;100555.94;5082038;28;20043;-72
2023/10/16 09:44:41;;;;;;;0.20;0.20;;;;;;;20.84;42.45;100569.59;5062024;28;20080;-72
2023/10/16 09:47:35;;;;;;;0.20;0.20;;;;;;;20.72;42.35;100550.63;5075179;28;20072;-71
2023/10/16 09:49:58;;;;;;;0.20;0.20;;;;;;;20.95;42.94;100550.81;5078314;28;20116;-68
2023/10/16 09:52:24;;;;;;;0.20;0.20;;;;;;;21.25;43.34;100549.78;5072993;28;20341;-70
2023/10/16 09:54:54;;;;;;;0.13;0.13;;;;;;;21.46;41.27;100551.03;5092619;28;20095;-69
2023/10/16 09:57:27;;;;;;;0.20;0.20;;;;;;;21.28;40.93;100552.28;5094627;28;20016;-67
2023/10/16 10:00:00;;;;;;;0.20;0.20;;;;;;;21.08;40.32;100550.03;5083249;28;20020;-68
2023/10/16 10:02:31;;;;;;;0.20;0.20;;;;;;;21.16;40.86;100542.28;5094852;28;20039;-68
2023/10/16 10:04:59;;;;;;;0.20;0.20;;;;;;;21.38;41.52;100547.97;5091765;28;20482;-68
2023/10/16 10:07:38;;;;;;;0.20;0.20;;;;;;;21.50;41.77;100557.97;5093881;28;20418;-68
2023/10/16 10:12:56;;;;;;;0.10;0.10;;;;;;;21.71;40.66;100551.06;5088742;28;20055;-68
2023/10/16 10:15:29;;;;;;;0.20;0.20;;;;;;;22.07;40.04;100548.50;5072194;28;20075;-68
2023/10/16 10:17:56;;;;;;;0.20;0.20;;;;;;;21.81;39.98;100547.63;5062834;28;20070;-67
2023/10/16 10:20:39;;;;;;;0.10;0.10;;;;;;;21.43;40.01;100545.81;5072211;28;20024;-68
2023/10/16 10:23:06;;;;;;;0.20;0.20;;;;;;;21.64;41.65;100544.34;5053678;28;20029;-65
2023/10/16 10:25:37;;;;;;;0.20;0.20;;;;;;;21.66;41.43;100536.97;5047383;28;20067;-65
2023/10/16 10:28:16;;;;;;;0.20;0.20;;;;;;;21.59;41.18;100541.06;5047212;28;20025;-66
2023/10/16 10:30:45;;;;;;;0.10;0.10;;;;;;;21.74;40.98;100540.00;5049144;28;20028;-65
2023/10/16 10:33:42;;;;;;;0.13;0.13;;;;;;;22.12;40.25;100540.91;5049424;28;20020;-65
2023/10/16 10:36:36;;;;;;;0.10;0.10;;;;;;;22.24;39.67;100534.59;5050386;28;20116;-65
2023/10/16 10:39:20;;;;;;;0.20;0.20;;;;;;;21.84;39.75;100538.44;5058158;28;20111;-65
2023/10/16 10:41:54;;;;;;;0.10;0.10;;;;;;;21.81;40.15;100535.94;5064910;28;20084;-65
2023/10/16 10:44:29;;;;;;;0.20;0.20;;;;;;;22.11;39.92;100518.34;5068941;28;20028;-65
2023/10/16 10:46:55;;;;;;;0.10;0.10;;;;;;;22.37;39.88;100519.19;5068982;28;20028;-65
2023/10/16 10:49:33;;;;;;;0.10;0.10;;;;;;;22.62;39.96;100513.72;5068499;28;20029;-65
2023/10/16 10:52:01;;;;;;;0.10;0.10;;;;;;;22.98;39.84;100505.53;5054301;28;20060;-64
2023/10/16 10:54:26;;;;;;;0.10;0.10;;;;;;;22.71;38.47;100507.63;5068731;28;20039;-64
2023/10/16 10:56:59;;;;;;;0.10;0.10;;;;;;;22.53;39.74;100514.41;5054918;28;20033;-65
2023/10/16 10:59:55;;;;;;;0.20;0.20;;;;;;;22.25;40.72;100498.41;5056741;28;20032;-65
2023/10/16 11:02:35;;;;;;;0.10;0.10;;;;;;;22.78;38.93;100489.91;5067203;28;20553;-65
2023/10/16 11:05:08;;;;;;;0.10;0.10;;;;;;;22.42;39.38;100487.16;5071713;28;20078;-65
2023/10/16 11:07:45;;;;;;;0.10;0.10;;;;;;;22.74;39.31;100484.81;5052868;28;20525;-65
2023/10/16 11:10:13;;;;;;;0.10;0.10;;;;;;;22.85;38.64;100480.31;5066838;28;20286;-65
2023/10/16 11:12:39;;;;;;;0.10;0.10;;;;;;;22.49;38.84;100477.59;5067022;28;20044;-65
2023/10/16 11:15:15;;;;;;;0.10;0.10;;;;;;;22.55;38.42;100469.06;5073358;28;20141;-66
2023/10/16 11:17:40;;;;;;;0.10;0.10;;;;;;;22.73;38.45;100469.53;5076692;28;20078;-65
2023/10/16 11:22:43;;;;;;;0.10;0.10;;;;;;;23.39;37.54;100457.09;5090925;28;20032;-65
2023/10/16 11:25:20;;;;;;;0.10;0.10;;;;;;;23.51;38.76;100449.00;5082311;28;20845;-65
2023/10/16 11:27:45;;;;;;;0.10;0.10;;;;;;;23.05;37.60;100447.09;5086465;28;20024;-65
2023/10/16 11:30:18;;;;;;;0.10;0.10;;;;;;;23.00;37.39;100438.44;5092166;28;20348;-65
2023/10/16 11:32:46;;;;;;;0.10;0.10;;;;;;;22.73;38.47;100435.13;5092924;28;20471;-68
2023/10/16 11:35:14;;;;;;;0.10;0.10;;;;;;;22.99;37.20;100428.59;5084073;28;20035;-68
2023/10/16 11:37:42;;;;;;;0.10;0.10;;;;;;;22.55;37.60;100422.97;5075314;28;20032;-68
2023/10/16 11:40:18;;;;;;;0.10;0.10;;;;;;;22.62;38.36;100421.50;5078588;28;20034;-67
2023/10/16 11:42:45;;;;;;;0.15;0.15;;;;;;;22.53;37.44;100415.91;5083469;28;20028;-68
2023/10/16 11:45:18;;;;;;;0.10;0.10;;;;;;;22.40;38.19;100409.66;5095287;28;20082;-68
2023/10/16 11:47:44;;;;;;;0.15;0.15;;;;;;;22.62;37.36;100409.81;5094540;28;20024;-68
2023/10/16 11:50:17;;;;;;;0.20;0.20;;;;;;;22.84;37.61;100397.19;5091403;28;20505;-68
2023/10/16 11:52:43;;;;;;;0.10;0.10;;;;;;;22.78;36.67;100392.25;5095425;28;20027;-67
2023/10/16 11:55:08;;;;;;;0.20;0.20;;;;;;;22.65;37.75;100387.88;5095353;28;20052;-68
2023/10/16 11:57:34;;;;;;;0.10;0.10;;;;;;;22.84;37.95;100383.63;5094128;28;20020;-68
2023/10/16 12:00:15;;;;;;;0.20;0.20;;;;;;;22.96;37.71;100384.53;5076321;28;20016;-68
2023/10/16 12:02:41;;;;;;;0.10;0.10;;;;;;;23.22;36.69;100384.22;5085639;28;20031;-68
2023/10/16 12:05:07;;;;;;;0.10;0.10;;;;;;;22.95;35.91;100383.66;5081596;28;20033;-68
2023/10/16 12:07:33;;;;;;;0.10;0.10;;;;;;;23.04;37.26;100369.41;5073951;28;20032;-68
2023/10/16 12:10:04;;;;;;;0.10;0.10;;;;;;;22.97;36.13;100365.41;5075332;28;20047;-69
2023/10/16 12:12:30;;;;;;;0.10;0.10;;;;;;;22.58;36.63;100359.50;5086166;28;20036;-68
2023/10/16 12:14:56;;;;;;;0.10;0.10;;;;;;;22.70;36.32;100359.41;5088648;28;20413;-68
2023/10/16 12:17:24;;;;;;;0.10;0.10;;;;;;;22.99;37.43;100360.75;5073911;28;20025;-67
2023/10/16 12:19:52;;;;;;;0.10;0.10;;;;;;;23.17;36.87;100353.00;5090807;28;20024;-68
2023/10/16 12:22:20;;;;;;;0.10;0.10;;;;;;;23.07;35.92;100344.72;5095582;28;20028;-69
2023/10/16 12:24:46;;;;;;;0.10;0.10;;;;;;;23.35;36.00;100333.44;5086015;28;20032;-67
2023/10/16 12:27:15;;;;;;;0.10;0.10;;;;;;;23.65;34.92;100332.81;5075959;28;20044;-68
2023/10/16 12:29:41;;;;;;;0.10;0.10;;;;;;;23.50;34.89;100331.34;5078059;28;20103;-68
2023/10/16 12:32:07;;;;;;;0.10;0.10;;;;;;;23.59;34.78;100329.72;5075009;28;20035;-68
2023/10/16 12:34:33;;;;;;;0.20;0.20;;;;;;;24.10;33.75;100325.50;5082846;28;20020;-68
2023/10/16 12:37:00;;;;;;;0.10;0.10;;;;;;;24.36;34.22;100325.03;5080817;28;20135;-68
2023/10/16 12:39:28;;;;;;;0.10;0.10;;;;;;;23.98;34.27;100315.63;5084356;28;20043;-68
2023/10/16 12:42:01;;;;;;;0.10;0.10;;;;;;;23.86;34.38;100303.00;5083589;28;20038;-67
2023/10/16 12:44:27;;;;;;;0.10;0.10;;;;;;;23.71;35.29;100301.56;5069740;28;20021;-67
2023/10/16 12:46:56;;;;;;;0.10;0.10;;;;;;;23.34;35.14;100301.00;5069451;28;20048;-67
2023/10/16 12:49:22;;;;;;;0.10;0.10;;;;;;;23.50;35.93;100298.75;5071826;28;20042;-67
2023/10/16 12:51:49;;;;;;;0.10;0.10;;;;;;;23.27;34.46;100287.03;5069731;28;20024;-67
2023/10/16 12:54:15;;;;;;;0.10;0.10;;;;;;;23.02;35.29;100299.94;5080058;28;20541;-67
2023/10/16 12:56:43;;;;;;;0.10;0.10;;;;;;;22.88;35.63;100295.59;5089502;28;20032;-66
2023/10/16 12:59:09;;;;;;;0.10;0.10;;;;;;;22.67;34.36;100299.97;5088248;28;20543;-66
2023/10/16 13:01:36;;;;;;;0.10;0.10;;;;;;;22.81;35.12;100297.06;5069357;28;20113;-67
2023/10/16 13:04:06;;;;;;;0.10;0.10;;;;;;;22.59;35.25;100291.59;5071246;28;20643;-66
2023/10/16 13:06:32;;;;;;;0.10;0.10;;;;;;;22.82;35.21;100293.38;5068762;28;20028;-67
2023/10/16 13:09:00;;;;;;;0.10;0.10;;;;;;;23.07;34.42;100282.31;5071296;28;20086;-66
2023/10/16 13:11:27;;;;;;;0.10;0.10;;;;;;;23.50;34.08;100273.44;5068578;28;20034;-66
2023/10/16 13:13:55;;;;;;;0.10;0.10;;;;;;;23.39;34.15;100269.75;5071143;28;20073;-67
2023/10/16 13:16:24;;;;;;;0.10;0.10;;;;;;;23.29;33.56;100255.19;5063207;28;20028;-67
2023/10/16 13:18:59;;;;;;;0.10;0.10;;;;;;;23.08;33.15;100256.88;5069955;28;20044;-67
2023/10/16 13:21:35;;;;;;;0.10;0.10;;;;;;;22.93;34.08;100262.69;5070484;28;20032;-67
2023/10/16 13:24:13;;;;;;;0.10;0.10;;;;;;;23.33;33.98;100256.66;5084887;28;20031;-67
2023/10/16 13:26:39;;;;;;;0.10;0.10;;;;;;;22.94;33.48;100249.00;5070474;28;20506;-67
2023/10/16 13:29:09;;;;;;;0.10;0.10;;;;;;;22.81;33.20;100248.25;5088690;28;20600;-67
2023/10/16 13:31:44;;;;;;;0.20;0.20;;;;;;;22.72;33.88;100253.50;5062822;28;20028;-67
2023/10/16 13:34:13;;;;;;;0.10;0.10;;;;;;;22.50;33.25;100237.19;5068636;28;20063;-66